Time;durP1;ratioP1;P1;durP2;ratioP2;P2;SDS_P1;SDS_P2;PMS_P1;PMS_P2;Temp;Humidity;BMP_temperature;BMP_pressure;BME280_temperature;BME280_humidity;BME280_pressure;Samples;Min_cycle;Max_cycle;Signal;HPM_P1;HPM_P2
2023/07/20 00:01:26;;;;;;;9.30;8.40;;;;;;;;;;5054523;28;20920;-48
2023/07/20 00:03:55;;;;;;;9.57;8.47;;;;;;;;;;5055010;28;20457;-49
2023/07/20 00:06:22;;;;;;;9.63;8.63;;;;;;;;;;5052578;28;20489;-51
2023/07/20 00:08:48;;;;;;;12.90;9.80;;;;;;;;;;5053029;28;20871;-51
2023/07/20 00:11:14;;;;;;;10.80;8.13;;;;;;;;;;5054537;28;20454;-51
2023/07/20 00:13:40;;;;;;;10.50;8.73;;;;;;;;;;5047889;28;20427;-50
2023/07/20 00:16:06;;;;;;;10.00;8.53;;;;;;;;;;5054657;28;20386;-51
2023/07/20 00:18:32;;;;;;;10.60;9.20;;;;;;;;;;5051027;28;20452;-51
2023/07/20 00:20:59;;;;;;;11.30;8.80;;;;;;;;;;5049842;28;20411;-52
2023/07/20 00:23:25;;;;;;;9.50;8.60;;;;;;;;;;5054592;28;20737;-51
2023/07/20 00:25:51;;;;;;;8.13;7.37;;;;;;;;;;5051138;28;20811;-51
2023/07/20 00:28:17;;;;;;;12.10;8.17;;;;;;;;;;5048099;28;20473;-51
2023/07/20 00:30:43;;;;;;;11.40;8.17;;;;;;;;;;5054339;28;20410;-51
2023/07/20 00:33:11;;;;;;;10.00;9.10;;;;;;;;;;5054608;28;20392;-51
2023/07/20 00:35:37;;;;;;;15.63;9.03;;;;;;;;;;5054457;28;20498;-49
2023/07/20 00:38:03;;;;;;;9.50;7.80;;;;;;;;;;5050425;28;20410;-51
2023/07/20 00:40:29;;;;;;;15.07;9.10;;;;;;;;;;5052901;28;20408;-50
2023/07/20 00:42:55;;;;;;;11.90;7.97;;;;;;;;;;5054411;28;20813;-50
2023/07/20 00:45:21;;;;;;;9.60;8.20;;;;;;;;;;5054108;28;20824;-51
2023/07/20 00:47:47;;;;;;;10.93;7.70;;;;;;;;;;5054237;28;20391;-51
2023/07/20 00:50:13;;;;;;;14.47;9.40;;;;;;;;;;5053881;28;20442;-51
2023/07/20 00:52:39;;;;;;;9.53;8.43;;;;;;;;;;5054115;28;20417;-51
2023/07/20 00:55:05;;;;;;;9.33;7.37;;;;;;;;;;5054037;28;20455;-50
2023/07/20 00:57:31;;;;;;;10.50;8.10;;;;;;;;;;5054013;28;20416;-50
2023/07/20 00:59:57;;;;;;;12.70;7.93;;;;;;;;;;5053980;28;20432;-51
2023/07/20 01:02:23;;;;;;;11.20;7.47;;;;;;;;;;5053344;28;20474;-49
2023/07/20 01:04:49;;;;;;;8.37;6.90;;;;;;;;;;5053238;28;20470;-51
2023/07/20 01:07:18;;;;;;;11.00;7.47;;;;;;;;;;5049816;28;21004;-50
2023/07/20 01:09:55;;;;;;;9.90;7.73;;;;;;;;;;5047239;28;20446;-50
2023/07/20 01:12:21;;;;;;;8.83;7.97;;;;;;;;;;5045771;28;20414;-51
2023/07/20 01:14:48;;;;;;;11.33;7.93;;;;;;;;;;5053751;28;20384;-51
2023/07/20 01:17:14;;;;;;;13.70;9.27;;;;;;;;;;5053635;28;20411;-52
2023/07/20 01:19:40;;;;;;;12.03;8.23;;;;;;;;;;5053031;28;20478;-50
2023/07/20 01:22:21;;;;;;;8.90;8.00;;;;;;;;;;5049268;28;20400;-49
2023/07/20 01:24:56;;;;;;;22.40;8.87;;;;;;;;;;5052595;28;20789;-49
2023/07/20 01:27:41;;;;;;;11.43;8.30;;;;;;;;;;5049468;28;20418;-50
2023/07/20 01:30:07;;;;;;;10.03;7.63;;;;;;;;;;5052489;28;20485;-51
2023/07/20 01:32:33;;;;;;;11.53;8.30;;;;;;;;;;5053505;28;20859;-51
2023/07/20 01:35:00;;;;;;;9.47;7.23;;;;;;;;;;5053647;28;20465;-52
2023/07/20 01:37:29;;;;;;;11.50;8.27;;;;;;;;;;5053181;28;20755;-51
2023/07/20 01:39:55;;;;;;;9.27;7.97;;;;;;;;;;5053198;28;20436;-50
2023/07/20 01:42:23;;;;;;;12.33;8.30;;;;;;;;;;5051685;28;20985;-50
2023/07/20 01:44:51;;;;;;;9.80;8.80;;;;;;;;;;5053141;28;20403;-49
2023/07/20 01:47:17;;;;;;;8.40;7.60;;;;;;;;;;5050760;28;20746;-50
2023/07/20 01:49:43;;;;;;;10.90;8.33;;;;;;;;;;5052727;28;20422;-49
2023/07/20 01:52:09;;;;;;;9.00;8.10;;;;;;;;;;5042556;28;20514;-51
2023/07/20 01:54:35;;;;;;;9.10;8.20;;;;;;;;;;5046781;28;20447;-52
2023/07/20 01:57:01;;;;;;;15.70;9.27;;;;;;;;;;5048989;28;20419;-52
2023/07/20 01:59:27;;;;;;;9.60;8.50;;;;;;;;;;5049523;28;20444;-51
2023/07/20 02:01:53;;;;;;;10.00;8.30;;;;;;;;;;5045953;28;20410;-52
2023/07/20 02:04:19;;;;;;;9.50;8.17;;;;;;;;;;5050163;28;20803;-51
2023/07/20 02:06:45;;;;;;;10.40;8.80;;;;;;;;;;5046689;28;20422;-51
2023/07/20 02:09:11;;;;;;;11.67;8.37;;;;;;;;;;5044605;28;20427;-51
2023/07/20 02:11:37;;;;;;;10.40;8.77;;;;;;;;;;5050916;28;20387;-51
2023/07/20 02:14:03;;;;;;;10.50;8.80;;;;;;;;;;5052443;28;20414;-49
2023/07/20 02:16:29;;;;;;;13.50;9.10;;;;;;;;;;5052434;28;20394;-51
2023/07/20 02:18:56;;;;;;;12.97;8.90;;;;;;;;;;5052464;28;20405;-51
2023/07/20 02:21:22;;;;;;;15.40;9.37;;;;;;;;;;5050807;28;20497;-51
2023/07/20 02:23:49;;;;;;;12.03;9.73;;;;;;;;;;5045682;28;21033;-49
2023/07/20 02:26:15;;;;;;;11.27;8.90;;;;;;;;;;5052248;28;20412;-51
2023/07/20 02:28:41;;;;;;;13.70;8.73;;;;;;;;;;5052243;28;20448;-50
2023/07/20 02:31:07;;;;;;;10.00;8.80;;;;;;;;;;5052154;28;20415;-49
2023/07/20 02:33:33;;;;;;;9.70;8.33;;;;;;;;;;5052185;28;20407;-49
2023/07/20 02:35:59;;;;;;;14.60;8.47;;;;;;;;;;5052145;28;20418;-50
2023/07/20 02:38:25;;;;;;;12.93;9.47;;;;;;;;;;5050593;28;20438;-51
2023/07/20 02:40:51;;;;;;;14.43;8.47;;;;;;;;;;5042086;28;20425;-51
2023/07/20 02:43:17;;;;;;;12.50;8.77;;;;;;;;;;5049215;28;20518;-51
2023/07/20 02:45:43;;;;;;;10.10;8.97;;;;;;;;;;5047476;28;20415;-52
2023/07/20 02:48:10;;;;;;;15.90;10.00;;;;;;;;;;5046258;28;20408;-50
2023/07/20 02:50:36;;;;;;;12.03;9.90;;;;;;;;;;5043679;28;20506;-51
2023/07/20 02:53:02;;;;;;;19.43;9.73;;;;;;;;;;5050641;28;20417;-51
2023/07/20 02:55:28;;;;;;;15.03;8.90;;;;;;;;;;5051818;28;20456;-55
2023/07/20 02:57:54;;;;;;;11.37;8.60;;;;;;;;;;5045456;28;20496;-50
2023/07/20 03:00:23;;;;;;;19.00;8.57;;;;;;;;;;5050135;28;20406;-51
2023/07/20 03:02:49;;;;;;;12.53;8.60;;;;;;;;;;5051809;28;20451;-52
2023/07/20 03:05:16;;;;;;;19.03;9.73;;;;;;;;;;5048806;28;20439;-53
2023/07/20 03:07:43;;;;;;;17.87;9.80;;;;;;;;;;5047402;28;20418;-52
2023/07/20 03:10:09;;;;;;;29.63;9.57;;;;;;;;;;5051458;28;20469;-51
2023/07/20 03:12:36;;;;;;;17.80;9.67;;;;;;;;;;5051507;28;20415;-51
2023/07/20 03:15:02;;;;;;;19.77;9.50;;;;;;;;;;5050560;28;20417;-53
2023/07/20 03:17:28;;;;;;;13.50;9.07;;;;;;;;;;5049191;28;20476;-52
2023/07/20 03:19:54;;;;;;;13.53;7.80;;;;;;;;;;5051269;28;20569;-52
2023/07/20 03:22:21;;;;;;;14.87;8.30;;;;;;;;;;5051239;28;20475;-51
2023/07/20 03:24:47;;;;;;;11.37;8.03;;;;;;;;;;5051374;28;20402;-51
2023/07/20 03:27:14;;;;;;;11.77;7.40;;;;;;;;;;5051439;28;20378;-51
2023/07/20 03:29:40;;;;;;;8.90;8.10;;;;;;;;;;5050301;28;20955;-51
2023/07/20 03:32:06;;;;;;;18.67;9.63;;;;;;;;;;5051911;28;20918;-53
2023/07/20 03:34:32;;;;;;;13.27;10.57;;;;;;;;;;5055478;28;20410;-50
2023/07/20 03:36:59;;;;;;;15.30;11.43;;;;;;;;;;5055388;28;20784;-50
2023/07/20 03:39:25;;;;;;;16.57;13.30;;;;;;;;;;5055295;28;20404;-51
2023/07/20 03:41:51;;;;;;;20.23;14.23;;;;;;;;;;5055315;28;20494;-51
2023/07/20 03:44:17;;;;;;;17.57;14.37;;;;;;;;;;5054549;28;20545;-49
2023/07/20 03:46:43;;;;;;;17.33;14.00;;;;;;;;;;5055366;28;20430;-51
2023/07/20 03:49:10;;;;;;;21.03;13.90;;;;;;;;;;5055104;28;20445;-52
2023/07/20 03:51:36;;;;;;;17.83;13.57;;;;;;;;;;5054943;28;20418;-50
2023/07/20 03:54:02;;;;;;;16.30;14.60;;;;;;;;;;5049216;28;20441;-51
2023/07/20 03:56:28;;;;;;;16.17;13.50;;;;;;;;;;5053109;28;20513;-51
2023/07/20 03:58:54;;;;;;;16.90;13.53;;;;;;;;;;5055143;28;20482;-51
2023/07/20 04:01:20;;;;;;;16.27;12.60;;;;;;;;;;5054841;28;20425;-52
2023/07/20 04:03:46;;;;;;;20.00;14.30;;;;;;;;;;5054937;28;20950;-52
2023/07/20 04:06:14;;;;;;;17.43;13.87;;;;;;;;;;5049371;28;20459;-49
2023/07/20 04:08:40;;;;;;;16.40;12.77;;;;;;;;;;5054840;28;20426;-52
2023/07/20 04:11:06;;;;;;;16.63;12.50;;;;;;;;;;5054382;28;20413;-51
2023/07/20 04:13:34;;;;;;;18.67;14.60;;;;;;;;;;5054835;28;20425;-51
2023/07/20 04:16:00;;;;;;;16.63;13.63;;;;;;;;;;5054768;28;20383;-52
2023/07/20 04:18:26;;;;;;;19.07;14.93;;;;;;;;;;5054614;28;20421;-51
2023/07/20 04:20:52;;;;;;;15.10;13.00;;;;;;;;;;5054556;28;20861;-50
2023/07/20 04:23:18;;;;;;;18.30;12.60;;;;;;;;;;5054560;28;20467;-50
2023/07/20 04:25:44;;;;;;;18.60;13.17;;;;;;;;;;5054257;28;20413;-52
2023/07/20 04:28:10;;;;;;;17.93;12.80;;;;;;;;;;5054875;28;20427;-52
2023/07/20 04:30:37;;;;;;;21.07;13.97;;;;;;;;;;5054727;28;20392;-51
2023/07/20 04:33:03;;;;;;;17.73;12.97;;;;;;;;;;5054438;28;20483;-52
2023/07/20 04:35:46;;;;;;;17.30;13.80;;;;;;;;;;5054310;28;20377;-50
2023/07/20 04:38:12;;;;;;;16.70;13.17;;;;;;;;;;5054022;28;20442;-50
2023/07/20 04:40:38;;;;;;;24.23;16.07;;;;;;;;;;5054290;28;20416;-51
2023/07/20 04:43:05;;;;;;;21.10;14.20;;;;;;;;;;5054085;28;20434;-51
2023/07/20 04:45:31;;;;;;;21.73;16.73;;;;;;;;;;5054041;28;20377;-51
2023/07/20 04:47:57;;;;;;;22.50;16.50;;;;;;;;;;5049548;28;20378;-51
2023/07/20 04:50:25;;;;;;;21.07;16.70;;;;;;;;;;5053908;28;20453;-53
2023/07/20 04:52:51;;;;;;;22.70;18.13;;;;;;;;;;5054330;28;20899;-53
2023/07/20 04:55:17;;;;;;;23.73;16.70;;;;;;;;;;5053946;28;20414;-52
2023/07/20 04:57:43;;;;;;;21.60;16.53;;;;;;;;;;5053573;28;20449;-52
2023/07/20 05:00:11;;;;;;;24.17;18.37;;;;;;;;;;5052967;28;20443;-52
2023/07/20 05:02:37;;;;;;;27.73;18.10;;;;;;;;;;5053451;28;20489;-50
2023/07/20 05:05:05;;;;;;;25.17;19.37;;;;;;;;;;5053291;28;20408;-49
2023/07/20 05:07:31;;;;;;;22.67;18.60;;;;;;;;;;5053414;28;20413;-51
2023/07/20 05:09:57;;;;;;;23.93;19.43;;;;;;;;;;5053040;28;20440;-50
2023/07/20 05:12:23;;;;;;;25.70;19.60;;;;;;;;;;5052567;28;20390;-50
2023/07/20 05:14:49;;;;;;;25.40;19.40;;;;;;;;;;5053565;28;20402;-49
2023/07/20 05:17:15;;;;;;;26.13;17.50;;;;;;;;;;5053707;28;20456;-48
2023/07/20 05:19:41;;;;;;;22.67;17.10;;;;;;;;;;5048961;28;20443;-51
2023/07/20 05:22:07;;;;;;;23.57;19.57;;;;;;;;;;5053668;28;20395;-50
2023/07/20 05:24:33;;;;;;;24.90;19.47;;;;;;;;;;5053658;28;20480;-50
2023/07/20 05:26:59;;;;;;;26.83;19.40;;;;;;;;;;5052583;28;20410;-50
2023/07/20 05:29:25;;;;;;;23.53;19.03;;;;;;;;;;5053445;28;20406;-51
2023/07/20 05:31:51;;;;;;;27.07;20.40;;;;;;;;;;5053421;28;20372;-49
2023/07/20 05:34:17;;;;;;;25.13;19.83;;;;;;;;;;5053581;28;20887;-49
2023/07/20 05:37:02;;;;;;;24.37;18.53;;;;;;;;;;5053410;28;20463;-47
2023/07/20 05:39:28;;;;;;;25.30;19.70;;;;;;;;;;5053251;28;20493;-49
2023/07/20 05:41:54;;;;;;;23.17;18.47;;;;;;;;;;5051950;28;20417;-48
2023/07/20 05:44:20;;;;;;;25.33;18.60;;;;;;;;;;5053077;28;20444;-49
2023/07/20 05:46:45;;;;;;;20.83;16.60;;;;;;;;;;5046629;28;20412;-47
2023/07/20 05:49:11;;;;;;;20.10;16.50;;;;;;;;;;5049331;28;20827;-49
2023/07/20 05:51:37;;;;;;;20.87;16.47;;;;;;;;;;5052926;28;20794;-50
2023/07/20 05:54:03;;;;;;;19.23;15.13;;;;;;;;;;5053148;28;20734;-51
2023/07/20 05:56:29;;;;;;;23.07;16.67;;;;;;;;;;5051201;28;20422;-49
2023/07/20 05:58:55;;;;;;;23.90;18.30;;;;;;;;;;5052550;28;20439;-49
2023/07/20 06:01:21;;;;;;;30.40;17.30;;;;;;;;;;5049409;28;20843;-50
2023/07/20 06:03:47;;;;;;;18.10;15.47;;;;;;;;;;5039552;28;20982;-50
2023/07/20 06:06:14;;;;;;;16.87;15.07;;;;;;;;;;5043882;28;20388;-48
2023/07/20 06:08:40;;;;;;;16.20;14.50;;;;;;;;;;5050265;28;20515;-45
2023/07/20 06:11:06;;;;;;;17.67;14.10;;;;;;;;;;5050783;28;20383;-45
2023/07/20 06:13:32;;;;;;;20.10;13.47;;;;;;;;;;5051318;28;20399;-46
2023/07/20 06:15:58;;;;;;;18.90;15.20;;;;;;;;;;5048389;28;20397;-47
2023/07/20 06:18:24;;;;;;;18.20;14.83;;;;;;;;;;5046262;28;20506;-50
2023/07/20 06:20:51;;;;;;;18.40;13.63;;;;;;;;;;5052349;28;20910;-45
2023/07/20 06:23:17;;;;;;;17.27;14.53;;;;;;;;;;5051418;28;20463;-49
2023/07/20 06:25:43;;;;;;;16.67;13.87;;;;;;;;;;5052349;28;20416;-48
2023/07/20 06:28:09;;;;;;;15.33;13.73;;;;;;;;;;5052566;28;20528;-45
2023/07/20 06:30:35;;;;;;;19.20;15.70;;;;;;;;;;5052092;28;20416;-46
2023/07/20 06:33:01;;;;;;;17.00;14.17;;;;;;;;;;5052426;28;20384;-45
2023/07/20 06:35:27;;;;;;;16.87;14.60;;;;;;;;;;5052196;28;20882;-45
2023/07/20 06:37:53;;;;;;;15.23;13.47;;;;;;;;;;5051266;28;20409;-45
2023/07/20 06:40:19;;;;;;;16.47;13.97;;;;;;;;;;5051781;28;20431;-46
2023/07/20 06:42:45;;;;;;;20.43;14.80;;;;;;;;;;5052252;28;20894;-45
2023/07/20 06:45:11;;;;;;;16.33;14.60;;;;;;;;;;5052276;28;20383;-46
2023/07/20 06:47:40;;;;;;;17.10;14.37;;;;;;;;;;5049701;28;20439;-45
2023/07/20 06:50:07;;;;;;;16.50;14.80;;;;;;;;;;5047473;28;20907;-48
2023/07/20 06:52:33;;;;;;;23.20;15.27;;;;;;;;;;5051372;28;20392;-49
2023/07/20 06:54:59;;;;;;;16.60;14.47;;;;;;;;;;5051876;28;20419;-48
2023/07/20 06:57:25;;;;;;;14.90;13.30;;;;;;;;;;5047885;28;20399;-45
2023/07/20 06:59:53;;;;;;;15.93;13.03;;;;;;;;;;5051606;28;20399;-46
2023/07/20 07:02:19;;;;;;;18.97;13.80;;;;;;;;;;5051637;28;20408;-46
2023/07/20 07:04:46;;;;;;;20.00;14.03;;;;;;;;;;5051878;28;20796;-47
2023/07/20 07:07:12;;;;;;;13.57;12.17;;;;;;;;;;5045201;28;20407;-53
2023/07/20 07:09:38;;;;;;;19.73;12.10;;;;;;;;;;5048299;28;20427;-45
2023/07/20 07:12:04;;;;;;;17.93;13.30;;;;;;;;;;5051829;28;20876;-45
2023/07/20 07:14:30;;;;;;;16.53;11.50;;;;;;;;;;5051683;28;20389;-45
2023/07/20 07:16:56;;;;;;;10.70;9.70;;;;;;;;;;5045494;28;20391;-45
2023/07/20 07:19:22;;;;;;;14.03;12.20;;;;;;;;;;5047948;28;20441;-45
2023/07/20 07:21:48;;;;;;;13.60;12.00;;;;;;;;;;5047849;28;20497;-46
2023/07/20 07:24:14;;;;;;;14.83;13.00;;;;;;;;;;5048455;28;20464;-46
2023/07/20 07:26:40;;;;;;;14.87;13.37;;;;;;;;;;5046754;28;20394;-48
2023/07/20 07:29:06;;;;;;;16.83;13.53;;;;;;;;;;5051458;28;20952;-49
2023/07/20 07:31:35;;;;;;;12.20;11.00;;;;;;;;;;5051308;28;20387;-45
2023/07/20 07:34:02;;;;;;;12.80;11.60;;;;;;;;;;5049957;28;20416;-46
2023/07/20 07:36:28;;;;;;;10.57;9.53;;;;;;;;;;5051377;28;20401;-46
2023/07/20 07:38:54;;;;;;;11.47;9.10;;;;;;;;;;5051773;28;20435;-46
2023/07/20 07:41:20;;;;;;;7.30;6.70;;;;;;;;;;5051197;28;20415;-46
2023/07/20 07:43:46;;;;;;;8.33;6.00;;;;;;;;;;5051206;28;20460;-45
2023/07/20 07:46:13;;;;;;;7.70;7.00;;;;;;;;;;5051268;28;20396;-50
2023/07/20 07:48:39;;;;;;;7.33;6.60;;;;;;;;;;5051315;28;20457;-46
2023/07/20 07:51:05;;;;;;;8.13;7.33;;;;;;;;;;5050892;28;20465;-45
2023/07/20 07:53:32;;;;;;;9.90;5.97;;;;;;;;;;5046064;28;20425;-45
2023/07/20 07:55:58;;;;;;;6.53;6.00;;;;;;;;;;5047115;28;20486;-45
2023/07/20 07:58:24;;;;;;;6.50;5.77;;;;;;;;;;5048994;28;20439;-47
2023/07/20 08:00:50;;;;;;;6.30;5.70;;;;;;;;;;5047415;28;20419;-46
2023/07/20 08:03:16;;;;;;;6.60;6.00;;;;;;;;;;5044382;28;20491;-47
2023/07/20 08:05:42;;;;;;;6.57;5.60;;;;;;;;;;5049044;28;20890;-46
2023/07/20 08:08:08;;;;;;;6.40;5.80;;;;;;;;;;5046219;28;20377;-46
2023/07/20 08:10:34;;;;;;;7.97;7.37;;;;;;;;;;5050982;28;20388;-46
2023/07/20 08:13:00;;;;;;;6.27;5.83;;;;;;;;;;5051106;28;20406;-46
2023/07/20 08:15:26;;;;;;;7.73;6.30;;;;;;;;;;5050517;28;20507;-49
2023/07/20 08:17:52;;;;;;;7.83;6.47;;;;;;;;;;5051228;28;20394;-45
2023/07/20 08:20:18;;;;;;;5.83;5.33;;;;;;;;;;5054429;28;20947;-46
2023/07/20 08:22:44;;;;;;;6.07;5.43;;;;;;;;;;5049135;28;20938;-46
2023/07/20 08:25:10;;;;;;;3.97;3.50;;;;;;;;;;5054604;28;20425;-46
2023/07/20 08:27:37;;;;;;;4.60;4.30;;;;;;;;;;5052481;28;20391;-45
2023/07/20 08:30:04;;;;;;;4.00;3.80;;;;;;;;;;5051897;28;20393;-45
2023/07/20 08:32:30;;;;;;;4.57;4.17;;;;;;;;;;5053785;28;20412;-47
2023/07/20 08:34:56;;;;;;;4.13;3.67;;;;;;;;;;5054505;28;20925;-50
2023/07/20 08:37:22;;;;;;;4.33;3.30;;;;;;;;;;5054456;28;20905;-46
2023/07/20 08:39:48;;;;;;;3.80;3.50;;;;;;;;;;5053598;28;20432;-47
2023/07/20 08:42:15;;;;;;;5.20;3.03;;;;;;;;;;5052316;28;20897;-46
2023/07/20 08:44:42;;;;;;;3.40;3.20;;;;;;;;;;5054432;28;20464;-48
2023/07/20 08:47:09;;;;;;;3.33;3.03;;;;;;;;;;5054306;28;20914;-48
2023/07/20 08:49:35;;;;;;;2.93;2.63;;;;;;;;;;5054019;28;21056;-49
2023/07/20 08:52:02;;;;;;;2.87;2.63;;;;;;;;;;5054266;28;20481;-49
2023/07/20 08:54:32;;;;;;;3.60;2.80;;;;;;;;;;5053719;28;20509;-45
2023/07/20 08:56:58;;;;;;;2.67;2.47;;;;;;;;;;5054163;28;20413;-47
2023/07/20 08:59:25;;;;;;;2.10;2.00;;;;;;;;;;5054017;28;20803;-46
2023/07/20 09:01:54;;;;;;;2.53;2.30;;;;;;;;;;5053894;28;20406;-46
2023/07/20 09:04:19;;;;;;;3.30;3.10;;;;;;;;;;5054080;28;20464;-45
2023/07/20 09:06:46;;;;;;;2.60;2.40;;;;;;;;;;5053069;28;20401;-46
2023/07/20 09:09:13;;;;;;;3.03;2.77;;;;;;;;;;5053906;28;20490;-48
2023/07/20 09:11:38;;;;;;;4.87;3.87;;;;;;;;;;5053038;28;20886;-45
2023/07/20 09:14:04;;;;;;;3.80;3.40;;;;;;;;;;5054396;28;20416;-45
2023/07/20 09:16:30;;;;;;;3.43;3.20;;;;;;;;;;5053795;28;20420;-45
2023/07/20 09:18:58;;;;;;;3.40;3.20;;;;;;;;;;5053767;28;20429;-45
2023/07/20 09:21:24;;;;;;;3.43;3.20;;;;;;;;;;5052965;28;20846;-46
2023/07/20 09:23:53;;;;;;;3.43;3.13;;;;;;;;;;5047124;28;21038;-48
2023/07/20 09:26:19;;;;;;;2.90;2.60;;;;;;;;;;5052969;28;20406;-46
2023/07/20 09:28:52;;;;;;;3.90;2.20;;;;;;;;;;5053611;28;20430;-47
2023/07/20 09:31:19;;;;;;;3.63;3.07;;;;;;;;;;5052337;28;20414;-47
2023/07/20 09:33:46;;;;;;;4.03;2.70;;;;;;;;;;5053460;28;20409;-47
2023/07/20 09:36:12;;;;;;;2.77;2.57;;;;;;;;;;5053476;28;20405;-46
2023/07/20 09:38:38;;;;;;;2.93;2.73;;;;;;;;;;5049134;28;20444;-46
2023/07/20 09:41:07;;;;;;;3.37;3.17;;;;;;;;;;5051980;28;20409;-46
2023/07/20 09:43:37;;;;;;;2.60;2.50;;;;;;;;;;5052585;28;20977;-45
2023/07/20 09:46:03;;;;;;;3.90;3.23;;;;;;;;;;5053175;28;20515;-45
2023/07/20 09:48:30;;;;;;;2.90;2.50;;;;;;;;;;5047464;28;20971;-46
2023/07/20 09:50:56;;;;;;;3.10;2.90;;;;;;;;;;5052924;28;20421;-46
2023/07/20 09:53:24;;;;;;;2.90;2.80;;;;;;;;;;5052546;28;21004;-45
2023/07/20 09:55:50;;;;;;;2.97;2.87;;;;;;;;;;5052809;28;20420;-46
2023/07/20 09:58:17;;;;;;;3.40;3.10;;;;;;;;;;5051380;28;20432;-46
2023/07/20 10:00:46;;;;;;;2.77;2.67;;;;;;;;;;5052731;28;20428;-46
2023/07/20 10:03:13;;;;;;;2.70;2.50;;;;;;;;;;5048787;28;20457;-51
2023/07/20 10:05:43;;;;;;;2.97;2.73;;;;;;;;;;5052815;28;20934;-45
2023/07/20 10:08:11;;;;;;;3.00;2.73;;;;;;;;;;5052903;28;20424;-45
2023/07/20 10:10:38;;;;;;;2.97;2.80;;;;;;;;;;5052394;28;20791;-45
2023/07/20 10:13:06;;;;;;;4.70;3.47;;;;;;;;;;5052682;28;20837;-47
2023/07/20 10:15:37;;;;;;;2.60;2.40;;;;;;;;;;5052510;28;20479;-45
2023/07/20 10:18:08;;;;;;;2.63;2.43;;;;;;;;;;5052585;28;20437;-45
2023/07/20 10:20:35;;;;;;;2.97;2.77;;;;;;;;;;5052540;28;20425;-45
2023/07/20 10:23:01;;;;;;;2.80;2.60;;;;;;;;;;5052439;28;20999;-45
2023/07/20 10:25:27;;;;;;;3.07;2.90;;;;;;;;;;5052487;28;20409;-46
2023/07/20 10:27:54;;;;;;;2.93;2.83;;;;;;;;;;5052461;28;20413;-45
2023/07/20 10:30:20;;;;;;;4.57;2.90;;;;;;;;;;5037744;28;20711;-44
2023/07/20 10:32:46;;;;;;;3.43;3.23;;;;;;;;;;5043996;28;20421;-48
2023/07/20 10:35:13;;;;;;;4.13;3.60;;;;;;;;;;5052261;28;20767;-50
2023/07/20 10:37:48;;;;;;;3.33;3.13;;;;;;;;;;5050699;28;20470;-48
2023/07/20 10:40:31;;;;;;;3.97;3.20;;;;;;;;;;5052241;28;20782;-45
2023/07/20 10:43:04;;;;;;;3.33;3.13;;;;;;;;;;5051860;28;21046;-45
2023/07/20 10:45:41;;;;;;;3.30;3.00;;;;;;;;;;5050585;28;20967;-45
2023/07/20 10:48:15;;;;;;;3.10;2.90;;;;;;;;;;5032010;28;20464;-45
2023/07/20 10:50:42;;;;;;;3.50;3.23;;;;;;;;;;5031998;28;20422;-45
2023/07/20 10:53:11;;;;;;;3.60;3.40;;;;;;;;;;5032170;28;20421;-45
2023/07/20 10:55:38;;;;;;;3.70;3.50;;;;;;;;;;5043706;28;20420;-46
2023/07/20 10:58:11;;;;;;;3.50;3.17;;;;;;;;;;5051940;28;20409;-45
2023/07/20 11:00:38;;;;;;;3.03;2.93;;;;;;;;;;5043379;28;20440;-46
2023/07/20 11:03:04;;;;;;;2.70;2.50;;;;;;;;;;5051540;28;20820;-45
2023/07/20 11:05:35;;;;;;;2.60;2.50;;;;;;;;;;5051790;28;21010;-45
2023/07/20 11:08:00;;;;;;;3.60;2.83;;;;;;;;;;5051670;28;20405;-46
2023/07/20 11:10:27;;;;;;;2.60;2.50;;;;;;;;;;5051449;28;20774;-45
2023/07/20 11:13:11;;;;;;;3.60;3.10;;;;;;;;;;5051809;28;20417;-45
2023/07/20 11:15:56;;;;;;;2.10;1.90;;;;;;;;;;5049875;28;20416;-46
2023/07/20 11:18:25;;;;;;;2.33;2.10;;;;;;;;;;5051547;28;20960;-48
2023/07/20 11:20:52;;;;;;;2.20;2.10;;;;;;;;;;5051806;28;20416;-45
2023/07/20 11:23:18;;;;;;;2.00;1.90;;;;;;;;;;5051656;28;20461;-45
2023/07/20 11:25:44;;;;;;;2.80;1.87;;;;;;;;;;5051394;28;20485;-44
2023/07/20 11:28:10;;;;;;;2.20;2.10;;;;;;;;;;5051828;28;20787;-45
2023/07/20 11:30:40;;;;;;;2.20;1.93;;;;;;;;;;5051327;28;20496;-45
2023/07/20 11:33:06;;;;;;;3.40;2.10;;;;;;;;;;5051529;28;20406;-49
2023/07/20 11:35:36;;;;;;;2.50;2.30;;;;;;;;;;5051521;28;20409;-49
2023/07/20 11:38:02;;;;;;;1.90;1.80;;;;;;;;;;5032706;28;20808;-49
2023/07/20 11:40:28;;;;;;;3.90;2.00;;;;;;;;;;5046776;28;20417;-48
2023/07/20 11:42:54;;;;;;;1.70;1.60;;;;;;;;;;5051431;28;20518;-46
2023/07/20 11:45:20;;;;;;;1.83;1.40;;;;;;;;;;5051059;28;20412;-44
2023/07/20 11:47:46;;;;;;;1.67;1.57;;;;;;;;;;5049720;28;20454;-45
2023/07/20 11:50:13;;;;;;;3.43;1.80;;;;;;;;;;5050975;28;20948;-46
2023/07/20 11:52:40;;;;;;;1.97;1.40;;;;;;;;;;5051286;28;20412;-48
2023/07/20 11:55:06;;;;;;;1.80;1.67;;;;;;;;;;5055115;28;20405;-47
2023/07/20 11:57:32;;;;;;;2.50;1.60;;;;;;;;;;5055307;28;20413;-46
2023/07/20 12:00:01;;;;;;;1.80;1.70;;;;;;;;;;5054898;28;20429;-47
2023/07/20 12:02:28;;;;;;;1.63;1.50;;;;;;;;;;5055150;28;20448;-44
2023/07/20 12:04:54;;;;;;;2.53;1.67;;;;;;;;;;5053957;28;20455;-48
2023/07/20 12:07:20;;;;;;;1.90;1.40;;;;;;;;;;5055642;28;20507;-44
2023/07/20 12:10:03;;;;;;;2.10;1.90;;;;;;;;;;5054876;28;20444;-45
2023/07/20 12:12:29;;;;;;;1.70;1.60;;;;;;;;;;5055193;28;20444;-48
2023/07/20 12:14:55;;;;;;;1.70;1.60;;;;;;;;;;5055002;28;20447;-44
2023/07/20 12:17:21;;;;;;;2.23;1.37;;;;;;;;;;5054917;28;20420;-44
2023/07/20 12:19:47;;;;;;;1.60;1.50;;;;;;;;;;5054487;28;20448;-45
2023/07/20 12:22:13;;;;;;;3.10;1.80;;;;;;;;;;5054890;28;20440;-48
2023/07/20 12:24:39;;;;;;;1.77;1.50;;;;;;;;;;5054798;28;20461;-44
2023/07/20 12:27:05;;;;;;;2.57;1.93;;;;;;;;;;5054822;28;20418;-44
2023/07/20 12:29:35;;;;;;;1.30;1.20;;;;;;;;;;5054667;28;20440;-44
2023/07/20 12:32:01;;;;;;;1.67;1.57;;;;;;;;;;5054537;28;20425;-45
2023/07/20 12:34:27;;;;;;;2.17;1.67;;;;;;;;;;5054971;28;20437;-45
2023/07/20 12:36:53;;;;;;;1.70;1.60;;;;;;;;;;5035729;28;20472;-47
2023/07/20 12:39:19;;;;;;;2.13;1.40;;;;;;;;;;5050421;28;20436;-49
2023/07/20 12:41:46;;;;;;;1.83;1.73;;;;;;;;;;5054339;28;20658;-45
2023/07/20 12:44:12;;;;;;;1.63;1.53;;;;;;;;;;5054330;28;21025;-44
2023/07/20 12:46:38;;;;;;;1.43;1.33;;;;;;;;;;5054447;28;20413;-45
2023/07/20 12:49:04;;;;;;;1.77;1.40;;;;;;;;;;5054033;28;20429;-44
2023/07/20 12:51:30;;;;;;;2.13;1.80;;;;;;;;;;5054105;28;20500;-45
2023/07/20 12:53:56;;;;;;;5.90;2.00;;;;;;;;;;5054457;28;20413;-44
2023/07/20 12:56:22;;;;;;;1.50;1.40;;;;;;;;;;5054310;28;20905;-44
2023/07/20 12:58:49;;;;;;;4.60;1.40;;;;;;;;;;5054225;28;21023;-45
2023/07/20 13:01:15;;;;;;;1.73;1.63;;;;;;;;;;5052495;28;20479;-48
2023/07/20 13:03:41;;;;;;;2.20;1.80;;;;;;;;;;5053769;28;20992;-44
2023/07/20 13:06:07;;;;;;;2.43;2.10;;;;;;;;;;5052765;28;20420;-44
2023/07/20 13:08:33;;;;;;;2.03;1.80;;;;;;;;;;5053927;28;20425;-44
2023/07/20 13:11:00;;;;;;;1.60;1.50;;;;;;;;;;5053802;28;20398;-45
2023/07/20 13:13:26;;;;;;;1.70;1.60;;;;;;;;;;5052303;28;20409;-45
2023/07/20 13:15:54;;;;;;;1.83;1.73;;;;;;;;;;5053839;28;20416;-44
2023/07/20 13:18:20;;;;;;;1.80;1.70;;;;;;;;;;5053552;28;20413;-46
2023/07/20 13:20:45;;;;;;;3.40;2.30;;;;;;;;;;5053508;28;20838;-45
2023/07/20 13:23:11;;;;;;;2.10;2.00;;;;;;;;;;5053681;28;20461;-48
2023/07/20 13:25:37;;;;;;;2.03;1.93;;;;;;;;;;5052632;28;20401;-45
2023/07/20 13:28:03;;;;;;;3.63;2.10;;;;;;;;;;5053627;28;20931;-44
2023/07/20 13:30:30;;;;;;;2.20;2.00;;;;;;;;;;5053353;28;20437;-44
2023/07/20 13:32:56;;;;;;;2.77;2.67;;;;;;;;;;5053490;28;20427;-44
2023/07/20 13:35:22;;;;;;;11.63;2.30;;;;;;;;;;5053387;28;20421;-44
2023/07/20 13:37:47;;;;;;;4.40;1.77;;;;;;;;;;5053529;28;20511;-45
2023/07/20 13:40:18;;;;;;;3.10;2.60;;;;;;;;;;5053291;28;20973;-44
2023/07/20 13:42:45;;;;;;;5.23;2.60;;;;;;;;;;5045987;28;20419;-44
2023/07/20 13:45:10;;;;;;;2.20;2.10;;;;;;;;;;5037618;28;20423;-44
2023/07/20 13:47:36;;;;;;;4.70;2.33;;;;;;;;;;5053329;28;20396;-45
2023/07/20 13:50:02;;;;;;;3.10;2.37;;;;;;;;;;5053028;28;20440;-44
2023/07/20 13:52:28;;;;;;;2.67;2.47;;;;;;;;;;5053309;28;20916;-44
2023/07/20 13:54:54;;;;;;;2.70;2.43;;;;;;;;;;5053105;28;20418;-47
2023/07/20 13:57:20;;;;;;;2.07;1.97;;;;;;;;;;5053123;28;20518;-49
2023/07/20 13:59:46;;;;;;;2.37;2.17;;;;;;;;;;5052670;28;20493;-44
2023/07/20 14:02:15;;;;;;;3.30;2.10;;;;;;;;;;5052932;28;20421;-50
2023/07/20 14:04:41;;;;;;;3.23;2.80;;;;;;;;;;5052935;28;20958;-44
2023/07/20 14:07:07;;;;;;;2.40;2.30;;;;;;;;;;5053059;28;20772;-44
2023/07/20 14:09:33;;;;;;;2.70;2.40;;;;;;;;;;5052814;28;20506;-44
2023/07/20 14:11:59;;;;;;;2.20;2.10;;;;;;;;;;5052630;28;20408;-45
2023/07/20 14:14:25;;;;;;;2.40;2.20;;;;;;;;;;5052624;28;20503;-45
2023/07/20 14:16:52;;;;;;;2.23;2.10;;;;;;;;;;5052363;28;20511;-44
2023/07/20 14:19:18;;;;;;;2.33;2.13;;;;;;;;;;5052821;28;20868;-48
2023/07/20 14:21:45;;;;;;;2.50;2.30;;;;;;;;;;5052445;28;20644;-44
2023/07/20 14:24:11;;;;;;;5.83;2.57;;;;;;;;;;5052524;28;20452;-48
2023/07/20 14:26:37;;;;;;;6.63;2.30;;;;;;;;;;5052560;28;20408;-44
2023/07/20 14:29:03;;;;;;;2.10;2.00;;;;;;;;;;5052221;28;20933;-45
2023/07/20 14:31:29;;;;;;;3.93;2.10;;;;;;;;;;5046073;28;20923;-44